Nrc Patriot II — WDA8587 — position and weather

sailwx.info

Track history (hours):
 
Tides and Currents Weather Stations Pressure Air Temp Water Temp Dewpoint Dewpoint Depression Visibility Wind Speed Wind Dir Waves Ship Positions

Nrc Patriot II

Owner: National Response Corporation, HOUSTON, TX. More information available from US FCC via Universal Licensing System and Coast Guard Vessel Documentation Center.

Last reported at 2015-Aug-05 11:33 UTC. Time now 2015-Aug-05 12:32 UTC.
Position N 33°44' W 118°16'.

Length 30 m; draft 3.5 m.

Type: Port tender. MMSI: 366855940.

Date/timePositionNaut miles runAvg speedWind from/ knotsBaromVisibWave heightAir tempDewpointWater temp
2015-Aug-05 11:33N 33°44' W 118°16'0 0.0
2015-Aug-05 10:33N 33°44' W 118°16'0 0.0
2015-Aug-05 09:33N 33°44' W 118°16'0 0.0
2015-Aug-05 08:33N 33°44' W 118°16'0 0.0
2015-Aug-05 07:33N 33°44' W 118°16'0 0.0
2015-Aug-05 06:34N 33°44' W 118°16'0 0.0
2015-Aug-05 05:27N 33°44' W 118°16'0 0.0
2015-Aug-05 04:33N 33°44' W 118°16'0 0.0
2015-Aug-05 03:33N 33°44' W 118°16'0 0.0
2015-Aug-05 02:33N 33°44' W 118°16'0 0.0
2015-Aug-05 01:33N 33°44' W 118°16'0 0.0
2015-Aug-05 00:33N 33°44' W 118°16'0 0.0
2015-Aug-04 23:33N 33°44' W 118°16'0 0.0
2015-Aug-04 22:34N 33°44' W 118°16'0 0.0
2015-Aug-04 21:34N 33°44' W 118°16'0 0.0
2015-Aug-04 20:33N 33°44' W 118°16'0 0.0
2015-Aug-04 19:33N 33°44' W 118°16'0 0.0
2015-Aug-04 18:34N 33°44' W 118°16'0 0.0
2015-Aug-04 16:18N 33°44' W 118°16'0 0.0
2015-Aug-04 15:04N 33°44' W 118°16'0 0.0
2015-Aug-04 13:25N 33°44' W 118°16'0 0.0
2015-Aug-04 12:08N 33°44' W 118°16'0 0.0
2015-Aug-04 11:14N 33°44' W 118°16'0 0.0
2015-Aug-04 10:32N 33°44' W 118°16'0 0.0
2015-Aug-04 08:24N 33°44' W 118°16'0 0.0
2015-Aug-04 05:33N 33°44' W 118°16'0 0.0
2015-Aug-04 04:33N 33°44' W 118°16'0 0.0
2015-Aug-04 03:33N 33°44' W 118°16'0 0.0
2015-Aug-04 02:33N 33°44' W 118°16'0 0.0
2015-Aug-04 01:33N 33°44' W 118°16'0 0.0
2015-Aug-04 00:33N 33°44' W 118°16'0 0.0
2015-Aug-03 23:33N 33°44' W 118°16'0 0.0
2015-Aug-03 22:33N 33°44' W 118°16'0 0.0
2015-Aug-03 21:32N 33°44' W 118°16'0 0.0
2015-Aug-03 20:33N 33°44' W 118°16'0 0.0
2015-Aug-03 19:32N 33°44' W 118°16'0 0.0
2015-Aug-03 17:33N 33°44' W 118°16'0 0.0
2015-Aug-03 12:29N 33°44' W 118°16'0 0.0
2015-Aug-03 11:05N 33°44' W 118°16'0 0.0
2015-Aug-03 10:33N 33°44' W 118°16'0 0.0
2015-Aug-03 09:21N 33°44' W 118°16'0 0.0
2015-Aug-03 08:20N 33°44' W 118°16'0 0.0
2015-Aug-03 07:33N 33°44' W 118°16'0 0.0
2015-Aug-03 06:31N 33°44' W 118°16'0 0.0
2015-Aug-03 05:23N 33°44' W 118°16'0 0.0
2015-Aug-03 04:14N 33°44' W 118°16'0 0.0
2015-Aug-03 03:13N 33°44' W 118°16'0 0.0
2015-Aug-03 02:32N 33°44' W 118°16'0 0.0
2015-Aug-03 01:33N 33°44' W 118°16'0 0.0
2015-Aug-03 00:30N 33°44' W 118°16'0 0.0
2015-Aug-02 23:21N 33°44' W 118°16'0 0.0
2015-Aug-02 22:32N 33°44' W 118°16'0 0.0
2015-Aug-02 01:33N 33°44' W 118°16'0 0.0
2015-Aug-01 21:30N 33°44' W 118°16'0 0.0
2015-Aug-01 20:33N 33°44' W 118°16'0 0.0
2015-Aug-01 19:33N 33°44' W 118°16'0 0.0
2015-Aug-01 18:03N 33°44' W 118°16'0 0.0
2015-Aug-01 17:33N 33°44' W 118°16'0 0.0
2015-Aug-01 13:12N 33°44' W 118°16'0 0.0
2015-Aug-01 12:33N 33°44' W 118°16'0 0.0
2015-Aug-01 06:22N 33°44' W 118°16'0 0.0
2015-Aug-01 05:32N 33°44' W 118°16'0 0.0
2015-Aug-01 04:33N 33°44' W 118°16'0 0.0
2015-Aug-01 03:33N 33°44' W 118°16'0 0.0
2015-Aug-01 02:33N 33°44' W 118°16'0 0.0
2015-Aug-01 01:33N 33°44' W 118°16'0 0.0
2015-Aug-01 00:33N 33°44' W 118°16'1 1.2
2015-Jul-31 23:33N 33°43' W 118°16'9 8.9
2015-Jul-31 22:33N 33°38' W 118°07'2 2.1
2015-Jul-31 21:33N 33°36' W 118°05'0 0.3
2015-Jul-31 20:33N 33°37' W 118°05'1 0.8
2015-Jul-31 19:33N 33°37' W 118°05'1 0.6
2015-Jul-31 18:22N 33°38' W 118°04'0 0.3
2015-Jul-31 17:32N 33°38' W 118°05'11 2.8
2015-Jul-31 13:30N 33°44' W 118°16'0 0.0
2015-Jul-31 12:28N 33°44' W 118°16'0 0.0
2015-Jul-31 11:26N 33°44' W 118°16'0 0.0
2015-Jul-31 10:33N 33°44' W 118°16'0 0.0
2015-Jul-31 09:07N 33°44' W 118°16'0 0.0
2015-Jul-31 08:27N 33°44' W 118°16'0 0.0
2015-Jul-31 07:24N 33°44' W 118°16'0 0.0
2015-Jul-31 06:32N 33°44' W 118°16'0 0.0
2015-Jul-31 04:33N 33°44' W 118°16'0 0.0
2015-Jul-31 03:32N 33°44' W 118°16'0 0.0
2015-Jul-31 02:33N 33°44' W 118°16'0 0.0
2015-Jul-31 01:33N 33°44' W 118°16'0 0.0
2015-Jul-31 00:32N 33°44' W 118°16'0 0.0
2015-Jul-30 23:33N 33°44' W 118°16'0 0.0
2015-Jul-30 22:33N 33°44' W 118°16'0 0.0
2015-Jul-30 21:33N 33°44' W 118°16'0 0.0
2015-Jul-30 20:31N 33°44' W 118°16'0 0.0
2015-Jul-30 19:32N 33°44' W 118°16'0 0.0
2015-Jul-30 18:28N 33°44' W 118°16'0 0.0
2015-Jul-30 17:31N 33°44' W 118°16'0 0.0
2015-Jul-30 16:30N 33°44' W 118°16'0 0.0
2015-Jul-30 08:27N 33°44' W 118°16'0 0.0
2015-Jul-30 04:25N 33°44' W 118°16'0 0.0
2015-Jul-30 03:27N 33°44' W 118°16'0 0.0
2015-Jul-30 02:33N 33°44' W 118°16'0 0.0
2015-Jul-30 01:30N 33°44' W 118°16'0 0.0
2015-Jul-30 00:33N 33°44' W 118°16'0 0.0
2015-Jul-29 23:32N 33°44' W 118°16'0 0.0
2015-Jul-29 22:32N 33°44' W 118°16'0 0.0
2015-Jul-29 21:33N 33°44' W 118°16'0 0.0
2015-Jul-29 20:33N 33°44' W 118°16'0 0.0
2015-Jul-29 19:32N 33°44' W 118°16'0 0.0
2015-Jul-29 18:32N 33°44' W 118°16'0 0.0
2015-Jul-29 17:31N 33°44' W 118°16'0 0.0
2015-Jul-29 16:21N 33°44' W 118°16'0 0.0
2015-Jul-29 12:09N 33°44' W 118°16'0 0.0
2015-Jul-29 09:32N 33°44' W 118°16'0 0.0
2015-Jul-29 07:31N 33°44' W 118°16'0 0.0
2015-Jul-29 06:21N 33°44' W 118°16'0 0.0
2015-Jul-29 05:11N 33°44' W 118°16'0 0.0
2015-Jul-29 04:31N 33°44' W 118°16'0 0.0
2015-Jul-29 03:32N 33°44' W 118°16'0 0.0
2015-Jul-29 02:33N 33°44' W 118°16'0 0.0
2015-Jul-29 01:33N 33°44' W 118°16'0 0.0
2015-Jul-29 00:33N 33°44' W 118°16'0 0.0
2015-Jul-28 23:33N 33°44' W 118°16'0 0.0
2015-Jul-28 22:32N 33°44' W 118°16'0 0.0
2015-Jul-28 21:33N 33°44' W 118°16'0 0.0
2015-Jul-28 20:33N 33°44' W 118°16'0 0.0
2015-Jul-28 19:33N 33°44' W 118°16'0 0.0
2015-Jul-28 18:30N 33°44' W 118°16'0 0.0
2015-Jul-28 17:33N 33°44' W 118°16'0 0.0
2015-Jul-28 16:33N 33°44' W 118°16'0 0.0
2015-Jul-28 15:33N 33°44' W 118°16'0 0.0
2015-Jul-28 12:09N 33°44' W 118°16'0 0.0
2015-Jul-28 08:19N 33°44' W 118°16'0 0.0
2015-Jul-28 07:16N 33°44' W 118°16'0 0.0
2015-Jul-28 05:32N 33°44' W 118°16'0 0.0
2015-Jul-28 04:33N 33°44' W 118°16'0 0.0
2015-Jul-28 03:33N 33°44' W 118°16'0 0.0
2015-Jul-28 02:33N 33°44' W 118°16'0 0.0
2015-Jul-28 01:33N 33°44' W 118°16'0 0.0
2015-Jul-27 17:27N 33°44' W 118°16'0 0.0
2015-Jul-27 16:28N 33°44' W 118°16'0 0.0
2015-Jul-27 12:14N 33°44' W 118°16'0 0.0
2015-Jul-27 05:21N 33°44' W 118°16'0 0.0
2015-Jul-27 01:24N 33°44' W 118°16'0 0.0
2015-Jul-26 23:13N 33°44' W 118°16'0 0.0
2015-Jul-26 22:33N 33°44' W 118°16'0 0.0
2015-Jul-26 21:33N 33°44' W 118°16'0 0.0
2015-Jul-26 20:30N 33°44' W 118°16'0 0.0
2015-Jul-26 19:33N 33°44' W 118°16'0 0.0
2015-Jul-26 18:33N 33°44' W 118°16'0 0.0
2015-Jul-26 17:32N 33°44' W 118°16'0 0.0
2015-Jul-26 16:19N 33°44' W 118°16'0 0.0
2015-Jul-26 15:30N 33°44' W 118°16'0 0.0
2015-Jul-26 14:32N 33°44' W 118°16'0 0.0
2015-Jul-26 13:09N 33°44' W 118°16'0 0.0
2015-Jul-26 12:33N 33°44' W 118°16'  
Track history (hours):
 
Tides and Currents Weather Stations Pressure Air Temp Water Temp Dewpoint Dewpoint Depression Visibility Wind Speed Wind Dir Waves Ship Positions

Nrc Patriot II

Owner: National Response Corporation, HOUSTON, TX. More information available from US FCC via Universal Licensing System and Coast Guard Vessel Documentation Center.

Last reported at 2015-Aug-05 11:33 UTC. Time now 2015-Aug-05 12:32 UTC.
Position N 33°44' W 118°16'.

Length 30 m; draft 3.5 m.

Type: Port tender. MMSI: 366855940.

Date/timePositionNaut miles runAvg speedWind from/ knotsBaromVisibWave heightAir tempDewpointWater temp
2015-Aug-05 11:33N 33°44' W 118°16'0 0.0
2015-Aug-05 10:33N 33°44' W 118°16'0 0.0
2015-Aug-05 09:33N 33°44' W 118°16'0 0.0
2015-Aug-05 08:33N 33°44' W 118°16'0 0.0
2015-Aug-05 07:33N 33°44' W 118°16'0 0.0
2015-Aug-05 06:34N 33°44' W 118°16'0 0.0
2015-Aug-05 05:27N 33°44' W 118°16'0 0.0
2015-Aug-05 04:33N 33°44' W 118°16'0 0.0
2015-Aug-05 03:33N 33°44' W 118°16'0 0.0
2015-Aug-05 02:33N 33°44' W 118°16'0 0.0
2015-Aug-05 01:33N 33°44' W 118°16'0 0.0
2015-Aug-05 00:33N 33°44' W 118°16'0 0.0
2015-Aug-04 23:33N 33°44' W 118°16'0 0.0
2015-Aug-04 22:34N 33°44' W 118°16'0 0.0
2015-Aug-04 21:34N 33°44' W 118°16'0 0.0
2015-Aug-04 20:33N 33°44' W 118°16'0 0.0
2015-Aug-04 19:33N 33°44' W 118°16'0 0.0
2015-Aug-04 18:34N 33°44' W 118°16'0 0.0
2015-Aug-04 16:18N 33°44' W 118°16'0 0.0
2015-Aug-04 15:04N 33°44' W 118°16'0 0.0
2015-Aug-04 13:25N 33°44' W 118°16'0 0.0
2015-Aug-04 12:08N 33°44' W 118°16'0 0.0
2015-Aug-04 11:14N 33°44' W 118°16'0 0.0
2015-Aug-04 10:32N 33°44' W 118°16'0 0.0
2015-Aug-04 08:24N 33°44' W 118°16'0 0.0
2015-Aug-04 05:33N 33°44' W 118°16'0 0.0
2015-Aug-04 04:33N 33°44' W 118°16'0 0.0
2015-Aug-04 03:33N 33°44' W 118°16'0 0.0
2015-Aug-04 02:33N 33°44' W 118°16'0 0.0
2015-Aug-04 01:33N 33°44' W 118°16'0 0.0
2015-Aug-04 00:33N 33°44' W 118°16'0 0.0
2015-Aug-03 23:33N 33°44' W 118°16'0 0.0
2015-Aug-03 22:33N 33°44' W 118°16'0 0.0
2015-Aug-03 21:32N 33°44' W 118°16'0 0.0
2015-Aug-03 20:33N 33°44' W 118°16'0 0.0
2015-Aug-03 19:32N 33°44' W 118°16'0 0.0
2015-Aug-03 17:33N 33°44' W 118°16'0 0.0
2015-Aug-03 12:29N 33°44' W 118°16'0 0.0
2015-Aug-03 11:05N 33°44' W 118°16'0 0.0
2015-Aug-03 10:33N 33°44' W 118°16'0 0.0
2015-Aug-03 09:21N 33°44' W 118°16'0 0.0
2015-Aug-03 08:20N 33°44' W 118°16'0 0.0
2015-Aug-03 07:33N 33°44' W 118°16'0 0.0
2015-Aug-03 06:31N 33°44' W 118°16'0 0.0
2015-Aug-03 05:23N 33°44' W 118°16'0 0.0
2015-Aug-03 04:14N 33°44' W 118°16'0 0.0
2015-Aug-03 03:13N 33°44' W 118°16'0 0.0
2015-Aug-03 02:32N 33°44' W 118°16'0 0.0
2015-Aug-03 01:33N 33°44' W 118°16'0 0.0
2015-Aug-03 00:30N 33°44' W 118°16'0 0.0
2015-Aug-02 23:21N 33°44' W 118°16'0 0.0
2015-Aug-02 22:32N 33°44' W 118°16'0 0.0
2015-Aug-02 01:33N 33°44' W 118°16'0 0.0
2015-Aug-01 21:30N 33°44' W 118°16'0 0.0
2015-Aug-01 20:33N 33°44' W 118°16'0 0.0
2015-Aug-01 19:33N 33°44' W 118°16'0 0.0
2015-Aug-01 18:03N 33°44' W 118°16'0 0.0
2015-Aug-01 17:33N 33°44' W 118°16'0 0.0
2015-Aug-01 13:12N 33°44' W 118°16'0 0.0
2015-Aug-01 12:33N 33°44' W 118°16'0 0.0
2015-Aug-01 06:22N 33°44' W 118°16'0 0.0
2015-Aug-01 05:32N 33°44' W 118°16'0 0.0
2015-Aug-01 04:33N 33°44' W 118°16'0 0.0
2015-Aug-01 03:33N 33°44' W 118°16'0 0.0
2015-Aug-01 02:33N 33°44' W 118°16'0 0.0
2015-Aug-01 01:33N 33°44' W 118°16'0 0.0
2015-Aug-01 00:33N 33°44' W 118°16'1 1.2
2015-Jul-31 23:33N 33°43' W 118°16'9 8.9
2015-Jul-31 22:33N 33°38' W 118°07'2 2.1
2015-Jul-31 21:33N 33°36' W 118°05'0 0.3
2015-Jul-31 20:33N 33°37' W 118°05'1 0.8
2015-Jul-31 19:33N 33°37' W 118°05'1 0.6
2015-Jul-31 18:22N 33°38' W 118°04'0 0.3
2015-Jul-31 17:32N 33°38' W 118°05'11 2.8
2015-Jul-31 13:30N 33°44' W 118°16'0 0.0
2015-Jul-31 12:28N 33°44' W 118°16'0 0.0
2015-Jul-31 11:26N 33°44' W 118°16'0 0.0
2015-Jul-31 10:33N 33°44' W 118°16'0 0.0
2015-Jul-31 09:07N 33°44' W 118°16'0 0.0
2015-Jul-31 08:27N 33°44' W 118°16'0 0.0
2015-Jul-31 07:24N 33°44' W 118°16'0 0.0
2015-Jul-31 06:32N 33°44' W 118°16'0 0.0
2015-Jul-31 04:33N 33°44' W 118°16'0 0.0
2015-Jul-31 03:32N 33°44' W 118°16'0 0.0
2015-Jul-31 02:33N 33°44' W 118°16'0 0.0
2015-Jul-31 01:33N 33°44' W 118°16'0 0.0
2015-Jul-31 00:32N 33°44' W 118°16'0 0.0
2015-Jul-30 23:33N 33°44' W 118°16'0 0.0
2015-Jul-30 22:33N 33°44' W 118°16'0 0.0
2015-Jul-30 21:33N 33°44' W 118°16'0 0.0
2015-Jul-30 20:31N 33°44' W 118°16'0 0.0
2015-Jul-30 19:32N 33°44' W 118°16'0 0.0
2015-Jul-30 18:28N 33°44' W 118°16'0 0.0
2015-Jul-30 17:31N 33°44' W 118°16'0 0.0
2015-Jul-30 16:30N 33°44' W 118°16'0 0.0
2015-Jul-30 08:27N 33°44' W 118°16'0 0.0
2015-Jul-30 04:25N 33°44' W 118°16'0 0.0
2015-Jul-30 03:27N 33°44' W 118°16'0 0.0
2015-Jul-30 02:33N 33°44' W 118°16'0 0.0
2015-Jul-30 01:30N 33°44' W 118°16'0 0.0
2015-Jul-30 00:33N 33°44' W 118°16'0 0.0
2015-Jul-29 23:32N 33°44' W 118°16'0 0.0
2015-Jul-29 22:32N 33°44' W 118°16'0 0.0
2015-Jul-29 21:33N 33°44' W 118°16'0 0.0
2015-Jul-29 20:33N 33°44' W 118°16'0 0.0
2015-Jul-29 19:32N 33°44' W 118°16'0 0.0
2015-Jul-29 18:32N 33°44' W 118°16'0 0.0
2015-Jul-29 17:31N 33°44' W 118°16'0 0.0
2015-Jul-29 16:21N 33°44' W 118°16'0 0.0
2015-Jul-29 12:09N 33°44' W 118°16'0 0.0
2015-Jul-29 09:32N 33°44' W 118°16'0 0.0
2015-Jul-29 07:31N 33°44' W 118°16'0 0.0
2015-Jul-29 06:21N 33°44' W 118°16'0 0.0
2015-Jul-29 05:11N 33°44' W 118°16'0 0.0
2015-Jul-29 04:31N 33°44' W 118°16'0 0.0
2015-Jul-29 03:32N 33°44' W 118°16'0 0.0
2015-Jul-29 02:33N 33°44' W 118°16'0 0.0
2015-Jul-29 01:33N 33°44' W 118°16'0 0.0
2015-Jul-29 00:33N 33°44' W 118°16'0 0.0
2015-Jul-28 23:33N 33°44' W 118°16'0 0.0
2015-Jul-28 22:32N 33°44' W 118°16'0 0.0
2015-Jul-28 21:33N 33°44' W 118°16'0 0.0
2015-Jul-28 20:33N 33°44' W 118°16'0 0.0
2015-Jul-28 19:33N 33°44' W 118°16'0 0.0
2015-Jul-28 18:30N 33°44' W 118°16'0 0.0
2015-Jul-28 17:33N 33°44' W 118°16'0 0.0
2015-Jul-28 16:33N 33°44' W 118°16'0 0.0
2015-Jul-28 15:33N 33°44' W 118°16'0 0.0
2015-Jul-28 12:09N 33°44' W 118°16'0 0.0
2015-Jul-28 08:19N 33°44' W 118°16'0 0.0
2015-Jul-28 07:16N 33°44' W 118°16'0 0.0
2015-Jul-28 05:32N 33°44' W 118°16'0 0.0
2015-Jul-28 04:33N 33°44' W 118°16'0 0.0
2015-Jul-28 03:33N 33°44' W 118°16'0 0.0
2015-Jul-28 02:33N 33°44' W 118°16'0 0.0
2015-Jul-28 01:33N 33°44' W 118°16'0 0.0
2015-Jul-27 17:27N 33°44' W 118°16'0 0.0
2015-Jul-27 16:28N 33°44' W 118°16'0 0.0
2015-Jul-27 12:14N 33°44' W 118°16'0 0.0
2015-Jul-27 05:21N 33°44' W 118°16'0 0.0
2015-Jul-27 01:24N 33°44' W 118°16'0 0.0
2015-Jul-26 23:13N 33°44' W 118°16'0 0.0
2015-Jul-26 22:33N 33°44' W 118°16'0 0.0
2015-Jul-26 21:33N 33°44' W 118°16'0 0.0
2015-Jul-26 20:30N 33°44' W 118°16'0 0.0
2015-Jul-26 19:33N 33°44' W 118°16'0 0.0
2015-Jul-26 18:33N 33°44' W 118°16'0 0.0
2015-Jul-26 17:32N 33°44' W 118°16'0 0.0
2015-Jul-26 16:19N 33°44' W 118°16'0 0.0
2015-Jul-26 15:30N 33°44' W 118°16'0 0.0
2015-Jul-26 14:32N 33°44' W 118°16'0 0.0
2015-Jul-26 13:09N 33°44' W 118°16'0 0.0
2015-Jul-26 12:33N 33°44' W 118°16'  

Dump ship's entire track history